createdAt,value
2017-12-20T00:01:14.819Z,20.90
2017-12-20T00:03:43.242Z,21.80
2017-12-20T00:06:11.589Z,21.07
2017-12-20T00:08:39.945Z,21.83
2017-12-20T00:11:08.288Z,19.77
2017-12-20T00:13:36.645Z,21.27
2017-12-20T00:16:04.977Z,18.63
2017-12-20T00:18:33.324Z,19.97
2017-12-20T00:21:01.852Z,20.07
2017-12-20T00:23:30.209Z,19.03
2017-12-20T00:26:00.125Z,19.13
2017-12-20T00:28:29.251Z,18.80
2017-12-20T00:30:57.583Z,17.50
2017-12-20T00:33:26.696Z,17.50
2017-12-20T00:35:55.065Z,17.27
2017-12-20T00:38:24.154Z,16.73
2017-12-20T00:40:52.525Z,14.90
2017-12-20T00:43:21.363Z,23.80
2017-12-20T00:45:49.740Z,16.57
2017-12-20T00:48:18.131Z,15.73
2017-12-20T00:50:46.483Z,14.57
2017-12-20T00:53:14.941Z,15.73
2017-12-20T00:55:43.293Z,15.73
2017-12-20T00:58:11.754Z,15.47
2017-12-20T01:00:40.140Z,15.57
2017-12-20T01:03:08.486Z,15.47
2017-12-20T01:05:36.838Z,14.27
2017-12-20T01:08:05.264Z,15.40
2017-12-20T01:10:33.655Z,15.93
2017-12-20T01:13:02.032Z,15.60
2017-12-20T01:15:30.409Z,14.17
2017-12-20T01:17:58.745Z,13.67
2017-12-20T01:20:27.878Z,14.27
2017-12-20T01:22:56.256Z,12.50
2017-12-20T01:25:24.704Z,15.30
2017-12-20T01:27:53.047Z,13.80
2017-12-20T01:30:21.443Z,14.47
2017-12-20T01:32:49.877Z,16.57
2017-12-20T01:35:18.343Z,14.57
2017-12-20T01:37:46.724Z,14.00
2017-12-20T01:40:15.060Z,14.50
2017-12-20T01:42:43.432Z,13.97
2017-12-20T01:45:11.963Z,14.40
2017-12-20T01:47:40.363Z,14.80
2017-12-20T01:50:08.723Z,14.47
2017-12-20T01:52:37.123Z,13.47
2017-12-20T01:55:05.809Z,14.30
2017-12-20T01:57:34.146Z,14.57
2017-12-20T02:00:03.251Z,15.87
2017-12-20T02:02:32.385Z,15.50
2017-12-20T02:05:00.728Z,15.23
2017-12-20T02:07:29.125Z,15.63
2017-12-20T02:09:57.465Z,15.60
2017-12-20T02:12:26.575Z,16.73
2017-12-20T02:14:55.676Z,15.23
2017-12-20T02:17:24.088Z,15.90
2017-12-20T02:19:52.430Z,16.23
2017-12-20T02:22:22.267Z,16.23
2017-12-20T02:24:50.620Z,16.37
2017-12-20T02:27:19.733Z,16.70
2017-12-20T02:29:48.642Z,16.77
2017-12-20T02:32:16.993Z,16.20
2017-12-20T02:34:46.080Z,17.43
2017-12-20T02:37:14.516Z,16.57
2017-12-20T02:39:42.893Z,17.23
2017-12-20T02:42:14.926Z,18.00
2017-12-20T02:44:43.273Z,17.03
2017-12-20T02:47:11.700Z,16.00
2017-12-20T02:49:40.763Z,16.03
2017-12-20T02:52:09.865Z,17.30
2017-12-20T02:54:38.316Z,17.43
2017-12-20T02:57:06.680Z,19.00
2017-12-20T02:59:35.016Z,17.37
2017-12-20T03:02:03.355Z,17.20
2017-12-20T03:04:31.823Z,16.77
2017-12-20T03:07:00.148Z,16.57
2017-12-20T03:09:28.593Z,17.80
2017-12-20T03:11:56.884Z,15.40
2017-12-20T03:14:25.210Z,13.80
2017-12-20T03:16:53.556Z,16.03
2017-12-20T03:19:21.896Z,17.87
2017-12-20T03:21:50.253Z,15.70
2017-12-20T03:24:18.600Z,15.93
2017-12-20T03:26:47.109Z,15.53
2017-12-20T03:29:15.479Z,14.97
2017-12-20T03:31:43.816Z,15.77
2017-12-20T03:34:13.078Z,14.93
2017-12-20T03:36:41.395Z,14.60
2017-12-20T03:39:10.858Z,15.90
2017-12-20T03:41:39.196Z,14.13
2017-12-20T03:44:07.710Z,15.03
2017-12-20T03:46:36.086Z,14.27
2017-12-20T03:49:04.409Z,14.40
2017-12-20T03:51:32.822Z,14.10
2017-12-20T03:54:01.208Z,14.93
2017-12-20T03:56:29.544Z,13.73
2017-12-20T03:58:57.897Z,13.27
2017-12-20T04:01:26.349Z,13.13
2017-12-20T04:03:54.732Z,13.53
2017-12-20T04:06:23.103Z,13.83
2017-12-20T04:08:51.452Z,13.63
2017-12-20T04:11:19.785Z,13.50
2017-12-20T04:13:48.134Z,14.17
2017-12-20T04:16:16.530Z,13.10
2017-12-20T04:18:44.895Z,12.63
2017-12-20T04:21:13.239Z,11.27
2017-12-20T04:23:41.680Z,14.53
2017-12-20T04:26:10.081Z,13.77
2017-12-20T04:28:38.418Z,12.10
2017-12-20T04:31:06.776Z,13.37
2017-12-20T04:33:35.119Z,12.67
2017-12-20T04:36:03.451Z,12.30
2017-12-20T04:38:32.151Z,13.77
2017-12-20T04:41:00.514Z,14.40
2017-12-20T04:43:28.870Z,13.30
2017-12-20T04:45:57.969Z,12.77
2017-12-20T04:48:27.109Z,13.77
2017-12-20T04:50:55.447Z,12.73
2017-12-20T04:53:23.784Z,13.20
2017-12-20T04:55:52.125Z,13.00
2017-12-20T04:58:20.459Z,11.93
2017-12-20T05:00:49.540Z,12.97
2017-12-20T05:03:17.887Z,13.37
2017-12-20T05:05:46.247Z,12.90
2017-12-20T05:08:14.681Z,12.23
2017-12-20T05:10:43.128Z,12.10
2017-12-20T05:13:11.476Z,13.03
2017-12-20T05:15:39.811Z,12.37
2017-12-20T05:18:08.165Z,12.47
2017-12-20T05:20:36.524Z,11.47
2017-12-20T05:23:04.893Z,12.33
2017-12-20T05:25:34.012Z,11.63
2017-12-20T05:28:02.326Z,10.97
2017-12-20T05:30:30.776Z,10.97
2017-12-20T05:32:59.133Z,11.87
2017-12-20T05:35:27.479Z,11.17
2017-12-20T05:37:55.820Z,11.87
2017-12-20T05:40:24.511Z,11.67
2017-12-20T05:42:52.916Z,11.50
2017-12-20T05:45:21.245Z,10.87
2017-12-20T05:47:49.787Z,11.37
2017-12-20T05:50:18.132Z,10.97
2017-12-20T05:52:46.473Z,10.70
2017-12-20T05:55:14.819Z,10.90
2017-12-20T05:57:43.162Z,9.60
2017-12-20T06:00:11.508Z,10.17
2017-12-20T06:02:39.857Z,10.63
2017-12-20T06:05:08.241Z,10.50
2017-12-20T06:07:36.556Z,10.10
2017-12-20T06:10:04.958Z,11.60
2017-12-20T06:12:34.208Z,10.47
2017-12-20T06:15:03.390Z,10.43
2017-12-20T06:17:31.739Z,10.70
2017-12-20T06:20:00.209Z,10.70
2017-12-20T06:22:28.580Z,10.97
2017-12-20T06:24:56.914Z,10.33
2017-12-20T06:27:25.259Z,10.93
2017-12-20T06:29:53.698Z,10.40
2017-12-20T06:32:22.398Z,11.00
2017-12-20T06:34:50.773Z,10.77
2017-12-20T06:37:19.267Z,12.00
2017-12-20T06:39:47.639Z,10.97
2017-12-20T06:42:16.011Z,10.77
2017-12-20T06:44:44.417Z,9.63
2017-12-20T06:47:13.649Z,11.23
2017-12-20T06:49:41.992Z,11.40
2017-12-20T06:52:10.333Z,11.47
2017-12-20T06:54:39.475Z,10.50
2017-12-20T06:57:07.808Z,10.00
2017-12-20T06:59:36.920Z,11.20
2017-12-20T07:02:05.304Z,9.83
2017-12-20T07:04:33.693Z,9.57
2017-12-20T07:07:02.650Z,9.53
2017-12-20T07:09:31.747Z,10.23
2017-12-20T07:12:00.124Z,10.87
2017-12-20T07:14:29.233Z,10.53
2017-12-20T07:16:57.578Z,10.47
2017-12-20T07:19:25.924Z,9.63
2017-12-20T07:21:54.258Z,10.30
2017-12-20T07:24:23.372Z,10.27
2017-12-20T07:26:51.727Z,10.73
2017-12-20T07:29:20.081Z,10.07
2017-12-20T07:31:48.428Z,9.67
2017-12-20T07:34:16.766Z,10.70
2017-12-20T07:36:45.894Z,9.90
2017-12-20T07:39:14.270Z,10.13
2017-12-20T07:41:42.834Z,10.43
2017-12-20T07:44:11.149Z,10.97
2017-12-20T07:46:39.625Z,10.10
2017-12-20T07:49:07.969Z,10.17
2017-12-20T07:51:37.072Z,10.33
2017-12-20T07:54:05.429Z,10.37
2017-12-20T07:56:33.796Z,10.33
2017-12-20T07:59:02.153Z,11.90
2017-12-20T08:01:30.512Z,10.63
2017-12-20T08:03:58.896Z,10.97
2017-12-20T08:06:27.262Z,10.63
2017-12-20T08:08:55.608Z,10.20
2017-12-20T08:11:24.734Z,10.33
2017-12-20T08:13:53.153Z,10.63
2017-12-20T08:16:21.483Z,9.37
2017-12-20T08:18:49.829Z,9.53
2017-12-20T08:21:18.193Z,10.10
2017-12-20T08:23:46.673Z,10.43
2017-12-20T08:26:15.003Z,9.97
2017-12-20T08:28:43.427Z,10.17
2017-12-20T08:31:11.755Z,9.20
2017-12-20T08:33:40.103Z,9.53
2017-12-20T08:36:08.435Z,8.93
2017-12-20T08:38:36.789Z,8.53
2017-12-20T08:41:05.141Z,9.20
2017-12-20T08:43:33.479Z,8.77
2017-12-20T08:46:01.872Z,8.63
2017-12-20T08:48:30.204Z,9.53
2017-12-20T08:50:58.627Z,8.40
2017-12-20T08:53:27.014Z,7.83
2017-12-20T08:55:55.468Z,8.60
2017-12-20T08:58:23.845Z,8.73
2017-12-20T09:00:52.183Z,8.97
2017-12-20T09:03:20.608Z,9.27
2017-12-20T09:05:48.964Z,8.20
2017-12-20T09:08:17.398Z,9.80
2017-12-20T09:10:45.782Z,7.93
2017-12-20T09:13:14.428Z,8.30
2017-12-20T09:15:42.800Z,8.17
2017-12-20T09:18:11.132Z,9.23
2017-12-20T09:20:39.502Z,10.20
2017-12-20T09:23:07.846Z,9.07
2017-12-20T09:25:36.214Z,9.07
2017-12-20T09:28:04.538Z,9.03
2017-12-20T09:30:32.906Z,9.80
2017-12-20T09:33:01.317Z,9.70
2017-12-20T09:35:29.648Z,9.77
2017-12-20T09:37:58.028Z,9.67
2017-12-20T09:40:26.369Z,9.47
2017-12-20T09:42:55.500Z,9.70
2017-12-20T09:45:23.860Z,9.03
2017-12-20T09:47:52.408Z,9.40
2017-12-20T09:50:20.844Z,9.53
2017-12-20T09:52:49.208Z,10.40
2017-12-20T09:55:17.583Z,10.13
2017-12-20T09:57:46.032Z,9.57
2017-12-20T10:00:14.375Z,9.80
2017-12-20T10:02:42.733Z,9.60
2017-12-20T10:05:11.439Z,9.87
2017-12-20T10:07:39.780Z,9.50
2017-12-20T10:10:08.350Z,9.87
2017-12-20T10:12:36.714Z,10.67
2017-12-20T10:15:05.088Z,9.77
2017-12-20T10:17:33.445Z,11.03
2017-12-20T10:20:01.808Z,10.77
2017-12-20T10:22:30.768Z,10.80
2017-12-20T10:24:59.118Z,10.90
2017-12-20T10:27:27.456Z,9.80
2017-12-20T10:29:55.813Z,8.20
2017-12-20T10:32:24.138Z,7.73
2017-12-20T10:34:52.743Z,8.20
2017-12-20T10:37:21.174Z,7.77
2017-12-20T10:39:49.541Z,8.17
2017-12-20T10:42:17.882Z,7.37
2017-12-20T10:44:46.384Z,7.37
2017-12-20T10:47:15.686Z,7.30
2017-12-20T10:49:44.783Z,7.20
2017-12-20T10:52:13.135Z,6.27
2017-12-20T10:54:41.696Z,6.10
2017-12-20T10:57:10.036Z,5.90
2017-12-20T10:59:38.379Z,6.17
2017-12-20T11:02:06.702Z,6.07
2017-12-20T11:04:35.057Z,5.20
2017-12-20T11:07:04.177Z,6.00
2017-12-20T11:09:32.529Z,6.20
2017-12-20T11:12:01.640Z,6.30
2017-12-20T11:14:30.032Z,5.97
2017-12-20T11:16:58.416Z,6.70
2017-12-20T11:19:27.484Z,6.50
2017-12-20T11:21:55.825Z,5.87
2017-12-20T11:24:24.174Z,5.90
2017-12-20T11:26:52.702Z,5.60
2017-12-20T11:29:21.046Z,5.97
2017-12-20T11:31:49.520Z,5.93
2017-12-20T11:34:17.889Z,5.40
2017-12-20T11:36:46.772Z,6.20
2017-12-20T11:39:15.962Z,6.00
2017-12-20T11:41:44.470Z,5.73
2017-12-20T11:44:12.845Z,5.07
2017-12-20T11:46:41.181Z,5.40
2017-12-20T11:49:09.536Z,5.63
2017-12-20T11:51:37.872Z,5.37
2017-12-20T11:54:06.238Z,5.37
2017-12-20T11:56:34.609Z,5.30
2017-12-20T11:59:02.979Z,5.17
2017-12-20T12:01:32.168Z,5.30
2017-12-20T12:04:00.544Z,5.90
2017-12-20T12:06:28.934Z,5.57
2017-12-20T12:08:58.053Z,5.00
2017-12-20T12:11:26.411Z,4.93
2017-12-20T12:13:55.557Z,5.67
2017-12-20T12:16:23.967Z,4.60
2017-12-20T12:18:52.312Z,5.80
2017-12-20T12:21:20.658Z,5.10
2017-12-20T12:23:49.233Z,4.50
2017-12-20T12:26:18.352Z,4.50
2017-12-20T12:28:46.693Z,4.83
2017-12-20T12:31:15.822Z,4.23
2017-12-20T12:33:44.165Z,4.13
2017-12-20T12:36:12.606Z,4.90
2017-12-20T12:38:40.949Z,5.47
2017-12-20T12:41:09.294Z,5.03
2017-12-20T12:43:37.637Z,5.20
2017-12-20T12:46:06.004Z,5.03
2017-12-20T12:48:34.388Z,5.80
2017-12-20T12:51:02.755Z,5.53
2017-12-20T12:53:31.091Z,5.27
2017-12-20T12:55:59.438Z,5.27
2017-12-20T12:58:27.867Z,5.87
2017-12-20T13:00:56.233Z,6.60
2017-12-20T13:03:24.618Z,5.73
2017-12-20T13:05:53.006Z,5.80
2017-12-20T13:08:21.313Z,5.53
2017-12-20T13:10:50.686Z,6.70
2017-12-20T13:13:19.788Z,6.63
2017-12-20T13:15:48.937Z,6.40
2017-12-20T13:18:17.274Z,6.70
2017-12-20T13:20:45.633Z,6.23
2017-12-20T13:23:14.733Z,6.20
2017-12-20T13:25:44.171Z,6.07
2017-12-20T13:28:12.514Z,5.63
2017-12-20T13:30:41.604Z,6.40
2017-12-20T13:33:09.987Z,6.33
2017-12-20T13:35:38.425Z,7.20
2017-12-20T13:38:06.859Z,7.73
2017-12-20T13:40:35.968Z,6.93
2017-12-20T13:43:04.327Z,7.30
2017-12-20T13:45:33.419Z,8.30
2017-12-20T13:48:02.549Z,6.80
2017-12-20T13:50:30.879Z,7.10
2017-12-20T13:52:59.222Z,7.10
2017-12-20T13:55:27.620Z,8.87
2017-12-20T13:57:57.381Z,7.97
2017-12-20T14:00:26.512Z,7.90
2017-12-20T14:02:54.855Z,7.67
2017-12-20T14:05:23.218Z,8.13
2017-12-20T14:07:52.331Z,7.67
2017-12-20T14:10:20.730Z,7.40
2017-12-20T14:12:49.112Z,8.43
2017-12-20T14:15:17.457Z,8.47
2017-12-20T14:17:46.605Z,8.60
2017-12-20T14:20:15.120Z,8.20
2017-12-20T14:22:43.609Z,8.57
2017-12-20T14:25:12.728Z,9.13
2017-12-20T14:27:41.051Z,8.87
2017-12-20T14:30:09.407Z,9.40
2017-12-20T14:32:37.760Z,10.17
2017-12-20T14:35:06.116Z,9.50
2017-12-20T14:37:35.254Z,10.13
2017-12-20T14:40:03.605Z,10.80
2017-12-20T14:42:31.954Z,10.60
2017-12-20T14:45:00.290Z,11.10
2017-12-20T14:47:28.649Z,10.30
2017-12-20T14:49:56.995Z,11.03
2017-12-20T14:52:25.414Z,10.97
2017-12-20T14:54:53.890Z,10.00
2017-12-20T14:57:22.288Z,11.10
2017-12-20T14:59:50.661Z,10.13
2017-12-20T15:02:18.992Z,11.57
2017-12-20T15:04:47.424Z,11.67
2017-12-20T15:07:15.969Z,11.33
2017-12-20T15:09:44.628Z,12.67
2017-12-20T15:12:12.984Z,12.10
2017-12-20T15:14:41.319Z,11.63
2017-12-20T15:17:10.531Z,12.63
2017-12-20T15:19:38.893Z,12.07
2017-12-20T15:22:08.033Z,11.57
2017-12-20T15:24:36.623Z,11.40
2017-12-20T15:27:04.975Z,11.40
2017-12-20T15:29:33.357Z,11.73
2017-12-20T15:32:02.448Z,12.10
2017-12-20T15:34:30.811Z,11.00
2017-12-20T15:36:59.975Z,11.93
2017-12-20T15:39:28.328Z,12.47
2017-12-20T15:41:56.701Z,12.83
2017-12-20T15:44:25.131Z,13.90
2017-12-20T15:46:53.425Z,11.93
2017-12-20T15:49:21.944Z,11.80
2017-12-20T15:51:50.327Z,11.97
2017-12-20T15:54:18.670Z,12.50
2017-12-20T15:56:47.780Z,12.30
2017-12-20T15:59:16.135Z,12.80
2017-12-20T16:01:44.503Z,14.20
2017-12-20T16:04:12.858Z,12.93
2017-12-20T16:06:41.207Z,12.57
2017-12-20T16:09:09.553Z,12.50
2017-12-20T16:11:38.777Z,12.10
2017-12-20T16:14:07.155Z,12.60
2017-12-20T16:16:35.503Z,11.67
2017-12-20T16:19:04.885Z,12.10
2017-12-20T16:21:33.351Z,12.20
2017-12-20T16:24:01.707Z,12.90
2017-12-20T16:26:30.165Z,10.93
2017-12-20T16:28:58.599Z,11.70
2017-12-20T16:31:27.116Z,11.23
2017-12-20T16:33:55.465Z,11.77
2017-12-20T16:36:23.876Z,11.70
2017-12-20T16:38:52.972Z,10.27
2017-12-20T16:41:22.115Z,10.97
2017-12-20T16:43:50.473Z,10.13
2017-12-20T16:46:18.834Z,12.17
2017-12-20T16:48:47.944Z,10.90
2017-12-20T16:51:16.331Z,11.63
2017-12-20T16:53:44.792Z,12.03
2017-12-20T16:56:13.145Z,11.97
2017-12-20T16:58:41.571Z,12.13
2017-12-20T17:01:09.913Z,12.37
2017-12-20T17:03:39.052Z,11.23
2017-12-20T17:06:07.399Z,12.20
2017-12-20T17:08:36.504Z,14.00
2017-12-20T17:11:05.221Z,11.43
2017-12-20T17:13:33.605Z,11.37
2017-12-20T17:16:01.951Z,12.13
2017-12-20T17:18:30.306Z,11.20
2017-12-20T17:20:58.731Z,11.77
2017-12-20T17:23:27.076Z,11.37
2017-12-20T17:25:55.439Z,11.40
2017-12-20T17:28:24.180Z,11.63
2017-12-20T17:30:52.532Z,12.53
2017-12-20T17:33:21.001Z,12.53
2017-12-20T17:35:49.439Z,10.40
2017-12-20T17:38:17.774Z,12.50
2017-12-20T17:40:46.124Z,11.07
2017-12-20T17:43:14.474Z,10.80
2017-12-20T17:45:43.149Z,11.53
2017-12-20T17:48:11.519Z,13.27
2017-12-20T17:50:39.878Z,10.87
2017-12-20T17:53:08.228Z,11.47
2017-12-20T17:55:36.574Z,11.93
2017-12-20T17:58:04.971Z,11.57
2017-12-20T18:00:33.430Z,10.77
2017-12-20T18:03:01.906Z,10.70
2017-12-20T18:05:30.353Z,10.77
2017-12-20T18:07:59.465Z,10.97
2017-12-20T18:10:27.820Z,12.40
2017-12-20T18:12:56.937Z,12.03
2017-12-20T18:15:25.285Z,10.60
2017-12-20T18:17:54.433Z,12.37
2017-12-20T18:20:22.809Z,11.47
2017-12-20T18:22:51.143Z,12.70
2017-12-20T18:25:20.256Z,11.47
2017-12-20T18:27:48.609Z,11.20
2017-12-20T18:30:16.952Z,11.30
2017-12-20T18:32:45.308Z,11.73
2017-12-20T18:35:13.642Z,12.00
2017-12-20T18:37:42.006Z,10.87
2017-12-20T18:40:10.382Z,11.23
2017-12-20T18:42:39.288Z,11.07
2017-12-20T18:45:07.646Z,10.93
2017-12-20T18:47:36.084Z,11.27
2017-12-20T18:50:04.445Z,10.67
2017-12-20T18:52:33.640Z,10.70
2017-12-20T18:55:02.896Z,10.13
2017-12-20T18:57:31.263Z,10.80
2017-12-20T18:59:59.635Z,10.37
2017-12-20T19:02:28.870Z,11.10
2017-12-20T19:04:57.283Z,12.07
2017-12-20T19:07:26.870Z,11.40
2017-12-20T19:09:55.267Z,10.30
2017-12-20T19:12:24.137Z,10.97
2017-12-20T19:14:52.827Z,10.10
2017-12-20T19:17:21.272Z,11.00
2017-12-20T19:19:49.808Z,9.77
2017-12-20T19:22:18.909Z,10.23
2017-12-20T19:24:48.047Z,9.50
2017-12-20T19:27:16.401Z,8.97
2017-12-20T19:29:45.529Z,10.53
2017-12-20T19:32:14.414Z,10.13
2017-12-20T19:34:42.820Z,10.57
2017-12-20T19:37:11.166Z,9.80
2017-12-20T19:39:39.691Z,11.23
2017-12-20T19:42:08.051Z,10.17
2017-12-20T19:44:36.447Z,10.07
2017-12-20T19:47:05.622Z,10.53
2017-12-20T19:49:34.060Z,10.53
2017-12-20T19:52:03.278Z,9.80
2017-12-20T19:54:31.623Z,10.60
2017-12-20T19:57:00.741Z,10.80
2017-12-20T19:59:29.856Z,10.00
2017-12-20T20:01:58.236Z,11.40
2017-12-20T20:04:26.668Z,10.50
2017-12-20T20:06:55.009Z,10.77
2017-12-20T20:09:23.345Z,10.20
2017-12-20T20:11:51.766Z,9.23
2017-12-20T20:14:20.104Z,9.63
2017-12-20T20:16:49.645Z,8.77
2017-12-20T20:19:18.901Z,8.47
2017-12-20T20:21:48.514Z,9.77
2017-12-20T20:24:16.853Z,8.93
2017-12-20T20:26:45.206Z,8.50
2017-12-20T20:29:13.682Z,9.77
2017-12-20T20:31:42.024Z,8.37
2017-12-20T20:34:11.164Z,8.60
2017-12-20T20:36:39.489Z,8.83
2017-12-20T20:39:07.899Z,10.40
2017-12-20T20:41:36.280Z,10.67
2017-12-20T20:44:04.658Z,10.20
2017-12-20T20:46:33.087Z,11.80
2017-12-20T20:49:01.480Z,13.33
2017-12-20T20:51:29.863Z,13.07
2017-12-20T20:53:58.256Z,13.87
2017-12-20T20:56:26.802Z,15.10
2017-12-20T20:58:55.194Z,14.77
2017-12-20T21:01:23.641Z,16.03
2017-12-20T21:03:52.017Z,15.23
2017-12-20T21:06:20.592Z,15.67
2017-12-20T21:08:48.880Z,17.00
2017-12-20T21:11:17.241Z,17.37
2017-12-20T21:13:45.580Z,18.27
2017-12-20T21:16:13.968Z,18.60
2017-12-20T21:18:42.304Z,21.30
2017-12-20T21:21:10.654Z,20.70
2017-12-20T21:23:39.009Z,19.10
2017-12-20T21:26:07.350Z,20.57
2017-12-20T21:28:35.694Z,20.30
2017-12-20T21:31:04.029Z,18.57
2017-12-20T21:33:32.424Z,21.77
2017-12-20T21:36:01.523Z,18.43
2017-12-20T21:38:30.654Z,21.20
2017-12-20T21:40:59.036Z,21.20
2017-12-20T21:43:27.380Z,20.57
2017-12-20T21:45:56.490Z,21.03
2017-12-20T21:48:24.837Z,21.33
2017-12-20T21:50:53.189Z,20.53
2017-12-20T21:53:21.578Z,19.80
2017-12-20T21:55:49.902Z,21.87
2017-12-20T21:58:19.020Z,20.00
2017-12-20T22:00:47.366Z,21.13
2017-12-20T22:03:16.488Z,20.30
2017-12-20T22:05:44.826Z,19.80
2017-12-20T22:08:13.212Z,20.67
2017-12-20T22:10:42.323Z,19.67
2017-12-20T22:13:12.072Z,20.23
2017-12-20T22:15:40.411Z,17.33
2017-12-20T22:18:09.533Z,18.33
2017-12-20T22:20:37.869Z,17.77
2017-12-20T22:23:06.203Z,16.93
2017-12-20T22:25:34.568Z,17.10
2017-12-20T22:28:03.661Z,17.03
2017-12-20T22:30:32.012Z,16.07
2017-12-20T22:33:00.350Z,16.87
2017-12-20T22:35:28.738Z,16.43
2017-12-20T22:37:57.056Z,16.77
2017-12-20T22:40:26.165Z,15.90
2017-12-20T22:42:54.612Z,17.63
2017-12-20T22:45:23.076Z,16.10
2017-12-20T22:47:51.461Z,16.03
2017-12-20T22:50:19.800Z,15.47
2017-12-20T22:52:48.136Z,15.70
2017-12-20T22:55:16.635Z,14.53
2017-12-20T22:57:45.721Z,14.80
2017-12-20T23:00:14.862Z,14.97
2017-12-20T23:02:43.195Z,14.87
2017-12-20T23:05:12.302Z,15.23
2017-12-20T23:07:40.761Z,15.17
2017-12-20T23:10:09.868Z,14.90
2017-12-20T23:12:39.004Z,14.47
2017-12-20T23:15:07.375Z,14.77
2017-12-20T23:17:35.730Z,14.47
2017-12-20T23:20:04.843Z,16.40
2017-12-20T23:22:33.181Z,14.80
2017-12-20T23:25:01.526Z,13.67
2017-12-20T23:27:29.872Z,14.87
2017-12-20T23:29:58.215Z,14.90
2017-12-20T23:32:26.569Z,14.77
2017-12-20T23:34:55.019Z,13.63
2017-12-20T23:37:23.412Z,14.57
2017-12-20T23:39:51.744Z,13.83
2017-12-20T23:42:20.871Z,15.33
2017-12-20T23:44:49.214Z,14.80
2017-12-20T23:47:17.577Z,14.07
2017-12-20T23:49:46.013Z,12.93
2017-12-20T23:52:14.403Z,14.93
2017-12-20T23:54:42.731Z,13.30
2017-12-20T23:57:11.075Z,14.53
2017-12-20T23:59:39.432Z,13.53
